Time;durP1;ratioP1;P1;durP2;ratioP2;P2;SDS_P1;SDS_P2;PMS_P1;PMS_P2;Temp;Humidity;BMP_temperature;BMP_pressure;BME280_temperature;BME280_humidity;BME280_pressure;Samples;Min_cycle;Max_cycle;Signal;HPM_P1;HPM_P2
2022/01/05 00:01:58;;;;;;;1.87;1.70;;;6.30;99.90;;;;;;5019800;28;20449;-86
2022/01/05 00:04:27;;;;;;;1.87;1.77;;;6.30;99.90;;;;;;5020281;28;20481;-85
2022/01/05 00:06:54;;;;;;;1.47;1.37;;;6.30;99.90;;;;;;5019947;28;20454;-85
2022/01/05 00:09:21;;;;;;;1.60;1.50;;;6.40;99.90;;;;;;5019797;28;20505;-85
2022/01/05 00:11:47;;;;;;;1.87;1.77;;;6.40;99.90;;;;;;5027033;28;20450;-83
2022/01/05 00:14:15;;;;;;;1.90;1.77;;;6.40;99.90;;;;;;5027257;28;20450;-83
2022/01/05 00:16:42;;;;;;;3.20;1.40;;;6.40;99.90;;;;;;5019092;28;20466;-85
2022/01/05 00:19:09;;;;;;;1.30;1.10;;;6.40;99.90;;;;;;5015726;28;20478;-84
2022/01/05 00:21:36;;;;;;;2.87;2.30;;;6.40;99.90;;;;;;5015086;28;20963;-83
2022/01/05 00:24:03;;;;;;;1.30;1.20;;;6.40;99.90;;;;;;5015049;28;20457;-83
2022/01/05 00:26:30;;;;;;;1.30;1.10;;;6.40;99.90;;;;;;5017580;28;20885;-83
2022/01/05 00:28:57;;;;;;;3.23;2.80;;;6.50;99.90;;;;;;5019219;28;20438;-84
2022/01/05 00:31:25;;;;;;;1.63;1.10;;;6.40;99.90;;;;;;5021007;28;20457;-86
2022/01/05 00:33:53;;;;;;;1.40;1.30;;;6.40;99.90;;;;;;5030571;28;20446;-85
2022/01/05 00:36:20;;;;;;;1.90;1.00;;;6.40;99.90;;;;;;5030014;28;20454;-85
2022/01/05 00:38:47;;;;;;;1.47;0.90;;;6.40;99.90;;;;;;5036033;28;20473;-82
2022/01/05 00:41:14;;;;;;;1.13;1.03;;;6.40;99.90;;;;;;5036894;28;20443;-85
2022/01/05 00:43:41;;;;;;;2.27;0.90;;;6.50;99.90;;;;;;5029420;28;20453;-85
2022/01/05 00:46:08;;;;;;;1.60;0.77;;;6.40;99.90;;;;;;5032837;28;20897;-84
2022/01/05 00:48:36;;;;;;;0.97;0.87;;;6.40;99.90;;;;;;5030103;28;20943;-85
2022/01/05 00:51:04;;;;;;;0.80;0.70;;;6.40;99.90;;;;;;5025474;28;20489;-83
2022/01/05 00:53:31;;;;;;;1.20;0.70;;;6.40;99.90;;;;;;5015497;28;20450;-83
2022/01/05 00:55:57;;;;;;;0.90;0.63;;;6.40;99.90;;;;;;5021977;28;20474;-86
2022/01/05 00:58:24;;;;;;;0.60;0.47;;;6.40;99.90;;;;;;5022162;28;20487;-83
2022/01/05 01:00:51;;;;;;;0.70;0.70;;;6.40;99.90;;;;;;5022318;28;20449;-86
2022/01/05 01:03:18;;;;;;;1.40;0.77;;;6.40;99.90;;;;;;5022499;28;20457;-85
2022/01/05 01:05:46;;;;;;;1.40;0.70;;;6.40;99.90;;;;;;5032392;28;20497;-82
2022/01/05 01:08:12;;;;;;;0.93;0.90;;;6.40;99.90;;;;;;5030467;28;20453;-82
2022/01/05 01:10:39;;;;;;;2.00;0.80;;;6.40;99.90;;;;;;5016431;28;20497;-86
2022/01/05 01:13:06;;;;;;;0.60;0.50;;;6.40;99.90;;;;;;5023227;28;20477;-85
2022/01/05 01:15:33;;;;;;;0.67;0.60;;;6.40;99.90;;;;;;5022244;28;20477;-84
2022/01/05 01:17:59;;;;;;;0.60;0.40;;;6.40;99.90;;;;;;5021268;28;20489;-85
2022/01/05 01:20:26;;;;;;;1.43;0.60;;;6.40;99.90;;;;;;5021785;28;20450;-85
2022/01/05 01:22:54;;;;;;;0.80;0.60;;;6.40;99.90;;;;;;5021688;28;20449;-84
2022/01/05 01:25:21;;;;;;;1.83;0.63;;;6.40;99.90;;;;;;5022620;28;20471;-84
2022/01/05 01:27:47;;;;;;;0.83;0.60;;;6.50;99.90;;;;;;5022258;28;20446;-85
2022/01/05 01:30:14;;;;;;;0.60;0.60;;;6.50;99.90;;;;;;5022842;28;21024;-84
2022/01/05 01:32:42;;;;;;;0.73;0.70;;;6.50;99.90;;;;;;5034006;28;20442;-82
2022/01/05 01:35:09;;;;;;;0.73;0.57;;;6.50;99.90;;;;;;5030805;28;21002;-85
2022/01/05 01:37:36;;;;;;;0.63;0.43;;;6.50;99.90;;;;;;5020753;28;20500;-84
2022/01/05 01:40:06;;;;;;;0.90;0.53;;;6.50;99.90;;;;;;5021063;28;20516;-85
2022/01/05 01:42:33;;;;;;;0.67;0.53;;;6.50;99.90;;;;;;5021008;28;20442;-85
2022/01/05 01:44:59;;;;;;;0.80;0.57;;;6.50;99.90;;;;;;5020857;28;20998;-83
2022/01/05 01:47:26;;;;;;;0.80;0.60;;;6.50;99.90;;;;;;5026167;28;20950;-83
2022/01/05 01:49:53;;;;;;;0.70;0.50;;;6.60;99.90;;;;;;5017332;28;20855;-84
2022/01/05 01:52:20;;;;;;;0.60;0.50;;;6.60;99.90;;;;;;5016880;28;20442;-83
2022/01/05 01:54:47;;;;;;;0.50;0.47;;;6.60;99.90;;;;;;5016867;28;20474;-83
2022/01/05 01:57:15;;;;;;;0.60;0.50;;;6.60;99.90;;;;;;5020984;28;20445;-83
2022/01/05 01:59:43;;;;;;;0.50;0.50;;;6.60;99.90;;;;;;5020404;28;20536;-86
2022/01/05 02:02:10;;;;;;;1.00;0.50;;;6.60;99.90;;;;;;5018015;28;20981;-84
2022/01/05 02:04:39;;;;;;;1.80;0.50;;;6.60;99.90;;;;;;5028673;28;20469;-82
2022/01/05 02:07:05;;;;;;;0.93;0.60;;;6.70;99.90;;;;;;5021185;28;20446;-84
2022/01/05 02:09:32;;;;;;;1.33;0.40;;;6.70;99.90;;;;;;5029466;28;20476;-84
2022/01/05 02:11:59;;;;;;;1.17;0.50;;;6.70;99.90;;;;;;5025067;28;20446;-85
2022/01/05 02:14:27;;;;;;;1.73;0.40;;;6.80;99.90;;;;;;5020419;28;20442;-84
2022/01/05 02:16:55;;;;;;;0.70;0.50;;;6.80;99.90;;;;;;5019595;28;20446;-85
2022/01/05 02:19:22;;;;;;;0.70;0.50;;;6.80;99.90;;;;;;5019804;28;20488;-84
2022/01/05 02:21:50;;;;;;;0.67;0.40;;;6.80;99.90;;;;;;5019655;28;20966;-85
2022/01/05 02:24:17;;;;;;;0.70;0.70;;;6.80;99.90;;;;;;5019271;28;20931;-85
2022/01/05 02:26:44;;;;;;;1.53;0.70;;;6.90;99.90;;;;;;5018044;28;20502;-85
2022/01/05 02:29:10;;;;;;;0.50;0.40;;;6.90;99.90;;;;;;5017751;28;20497;-84
2022/01/05 02:31:37;;;;;;;0.80;0.50;;;6.90;99.90;;;;;;5013439;28;20450;-85
2022/01/05 02:34:04;;;;;;;0.60;0.60;;;6.90;99.90;;;;;;5018584;28;20443;-84
2022/01/05 02:36:31;;;;;;;0.57;0.43;;;6.90;99.90;;;;;;5017570;28;20478;-86
2022/01/05 02:38:59;;;;;;;1.23;0.77;;;7.00;99.90;;;;;;5018098;28;20482;-86
2022/01/05 02:41:26;;;;;;;0.57;0.50;;;6.90;99.90;;;;;;5017515;28;20854;-85
2022/01/05 02:43:53;;;;;;;1.00;0.40;;;7.00;99.90;;;;;;5020512;28;20469;-82
2022/01/05 02:46:21;;;;;;;0.60;0.47;;;6.90;99.90;;;;;;5031093;28;20501;-84
2022/01/05 02:48:50;;;;;;;1.03;0.40;;;7.00;99.90;;;;;;5026236;28;20447;-85
2022/01/05 02:51:16;;;;;;;0.60;0.50;;;7.00;99.90;;;;;;5020183;28;20486;-85
2022/01/05 02:53:44;;;;;;;0.63;0.40;;;7.00;99.90;;;;;;5015146;28;20504;-84
2022/01/05 02:56:12;;;;;;;0.70;0.50;;;7.00;99.90;;;;;;5019471;28;20474;-85
2022/01/05 02:58:39;;;;;;;0.63;0.60;;;7.00;99.90;;;;;;5029985;28;20484;-82
2022/01/05 03:01:06;;;;;;;1.00;0.50;;;7.00;99.90;;;;;;5029206;28;21004;-86
2022/01/05 03:03:33;;;;;;;0.60;0.50;;;7.00;99.90;;;;;;5022082;28;20477;-83
2022/01/05 03:06:00;;;;;;;0.63;0.40;;;7.00;99.90;;;;;;5046041;23;20494;-90
2022/01/05 03:08:27;;;;;;;0.80;0.70;;;7.00;99.90;;;;;;5016961;28;20446;-90
2022/01/05 03:10:55;;;;;;;1.00;0.40;;;7.00;99.90;;;;;;5017736;28;20841;-90
2022/01/05 03:13:24;;;;;;;0.70;0.53;;;7.00;99.90;;;;;;5016796;28;20544;-90
2022/01/05 03:15:51;;;;;;;0.90;0.50;;;6.90;99.90;;;;;;5015841;28;20478;-93
2022/01/05 03:18:18;;;;;;;1.53;0.50;;;6.90;99.90;;;;;;5015891;28;20478;-90
2022/01/05 03:20:47;;;;;;;0.60;0.57;;;6.90;99.90;;;;;;5016048;28;20454;-90
2022/01/05 03:23:14;;;;;;;0.60;0.40;;;6.90;99.90;;;;;;5016664;28;21014;-89
2022/01/05 03:25:42;;;;;;;0.50;0.40;;;6.80;99.90;;;;;;5015075;28;20496;-90
2022/01/05 03:28:09;;;;;;;0.70;0.47;;;6.80;99.90;;;;;;5015856;28;20443;-90
2022/01/05 03:30:38;;;;;;;0.73;0.70;;;6.90;99.90;;;;;;5015576;28;20772;-90
2022/01/05 03:33:11;;;;;;;0.60;0.60;;;6.90;99.90;;;;;;5015776;28;20465;-89
2022/01/05 03:35:40;;;;;;;0.60;0.40;;;6.90;99.90;;;;;;5016009;28;20569;-90
2022/01/05 03:38:08;;;;;;;1.30;0.53;;;6.90;99.90;;;;;;5016671;28;20458;-90
2022/01/05 03:40:36;;;;;;;0.60;0.50;;;6.90;99.90;;;;;;5022797;28;20913;-90
2022/01/05 03:43:03;;;;;;;0.70;0.50;;;6.90;99.90;;;;;;5015885;28;20446;-90
2022/01/05 03:45:31;;;;;;;0.60;0.50;;;6.90;99.90;;;;;;5016147;28;20476;-90
2022/01/05 03:47:59;;;;;;;0.57;0.40;;;7.00;99.90;;;;;;5018207;28;20472;-90
2022/01/05 03:50:26;;;;;;;0.60;0.50;;;6.90;99.90;;;;;;5034127;28;20446;-91
2022/01/05 03:52:53;;;;;;;0.60;0.50;;;6.90;99.90;;;;;;5023689;28;20455;-90
2022/01/05 03:55:21;;;;;;;0.50;0.40;;;6.90;99.90;;;;;;5017019;28;20458;-90
2022/01/05 03:57:48;;;;;;;0.90;0.63;;;6.90;99.90;;;;;;5016638;28;20560;-89
2022/01/05 04:00:16;;;;;;;0.70;0.50;;;7.00;99.90;;;;;;5026662;28;20485;-90
2022/01/05 04:02:43;;;;;;;0.63;0.50;;;7.00;99.90;;;;;;5035543;28;20450;-90
2022/01/05 04:05:12;;;;;;;0.80;0.30;;;7.00;99.90;;;;;;5033763;28;20442;-90
2022/01/05 04:07:39;;;;;;;3.27;0.40;;;7.00;99.90;;;;;;5025576;28;20889;-90
2022/01/05 04:10:07;;;;;;;0.50;0.30;;;7.00;99.90;;;;;;5018889;28;20449;-89
2022/01/05 04:12:33;;;;;;;0.50;0.40;;;6.90;99.90;;;;;;5018896;28;20473;-90
2022/01/05 04:15:02;;;;;;;0.60;0.40;;;6.90;99.90;;;;;;5022252;28;20453;-90
2022/01/05 04:17:29;;;;;;;1.17;0.40;;;6.90;99.90;;;;;;5025592;28;20554;-90
2022/01/05 04:19:56;;;;;;;0.80;0.40;;;6.80;99.90;;;;;;5018986;28;20469;-90
2022/01/05 04:22:24;;;;;;;1.43;0.70;;;6.90;99.90;;;;;;5016897;28;20946;-90
2022/01/05 04:24:51;;;;;;;0.50;0.30;;;6.80;99.90;;;;;;5016653;28;20446;-90
2022/01/05 04:27:18;;;;;;;1.43;0.40;;;6.90;99.90;;;;;;5017895;28;20577;-90
2022/01/05 04:29:45;;;;;;;0.50;0.30;;;6.80;99.90;;;;;;5016875;28;20446;-90
2022/01/05 04:32:12;;;;;;;1.23;0.30;;;6.90;99.90;;;;;;5015839;28;20461;-91
2022/01/05 04:34:40;;;;;;;0.87;0.57;;;6.80;99.90;;;;;;5019705;28;20454;-90
2022/01/05 04:37:07;;;;;;;0.60;0.60;;;6.80;99.90;;;;;;5028735;28;20462;-91
2022/01/05 04:39:37;;;;;;;0.80;0.50;;;6.80;99.90;;;;;;5028666;28;20470;-90
2022/01/05 04:42:05;;;;;;;0.97;0.40;;;6.80;99.90;;;;;;5017329;28;20625;-90
2022/01/05 04:44:32;;;;;;;0.63;0.53;;;6.70;99.90;;;;;;5015457;28;20462;-90
2022/01/05 04:47:55;;;;;;;0.60;0.50;;;6.70;99.90;;;;;;5016133;28;20573;-90
2022/01/05 04:50:22;;;;;;;2.97;0.60;;;6.70;99.90;;;;;;5024533;28;20450;-91
2022/01/05 04:52:49;;;;;;;1.37;0.73;;;6.70;99.90;;;;;;5016377;28;20465;-90
2022/01/05 04:55:18;;;;;;;2.70;0.60;;;6.60;99.90;;;;;;5015668;28;20454;-91
2022/01/05 04:57:44;;;;;;;0.60;0.40;;;6.70;99.90;;;;;;5016146;28;20454;-90
2022/01/05 05:00:12;;;;;;;1.23;0.40;;;6.70;99.90;;;;;;5016171;28;20484;-89
2022/01/05 05:02:39;;;;;;;0.53;0.53;;;6.70;99.90;;;;;;5036324;28;20430;-93
2022/01/05 05:05:07;;;;;;;0.83;0.67;;;6.70;99.90;;;;;;5036917;28;20442;-92
2022/01/05 05:07:34;;;;;;;1.20;0.50;;;6.70;99.90;;;;;;5024281;28;20481;-90
2022/01/05 05:10:01;;;;;;;0.50;0.40;;;6.60;99.90;;;;;;5016683;28;20540;-90
2022/01/05 05:12:30;;;;;;;0.57;0.47;;;6.60;99.90;;;;;;5020585;28;20556;-90
2022/01/05 05:14:58;;;;;;;0.67;0.60;;;6.60;99.90;;;;;;5029172;28;20448;-93
2022/01/05 05:17:25;;;;;;;0.60;0.50;;;6.60;99.90;;;;;;5041139;28;20470;-93
2022/01/05 05:19:52;;;;;;;0.93;0.90;;;6.60;99.90;;;;;;5040100;28;20545;-90
2022/01/05 05:22:19;;;;;;;0.60;0.57;;;6.60;99.90;;;;;;5033358;28;20430;-93
2022/01/05 05:24:45;;;;;;;0.90;0.57;;;6.60;99.90;;;;;;5039907;28;20449;-90
2022/01/05 05:27:12;;;;;;;1.37;0.70;;;6.60;99.90;;;;;;5023402;28;20482;-89
2022/01/05 05:29:42;;;;;;;1.63;0.80;;;6.20;99.90;;;;;;5021770;28;20482;-90
2022/01/05 05:32:10;;;;;;;0.70;0.70;;;5.80;99.90;;;;;;5020375;28;20475;-89
2022/01/05 05:34:37;;;;;;;0.90;0.90;;;5.50;99.90;;;;;;5019381;28;20802;-89
2022/01/05 05:37:04;;;;;;;4.53;1.20;;;5.20;99.90;;;;;;5001086;28;20505;-90
2022/01/05 05:39:31;;;;;;;1.00;0.90;;;5.00;99.90;;;;;;5012329;28;20487;-89
2022/01/05 05:41:58;;;;;;;1.27;1.17;;;4.80;99.90;;;;;;5018707;28;20481;-89
2022/01/05 05:44:25;;;;;;;1.70;1.43;;;4.70;99.90;;;;;;5016321;28;20452;-90
2022/01/05 05:46:53;;;;;;;2.20;2.00;;;4.60;99.90;;;;;;5022469;28;20462;-89
2022/01/05 05:49:20;;;;;;;2.33;1.50;;;4.50;99.90;;;;;;5038095;28;20443;-90
2022/01/05 05:51:47;;;;;;;2.40;1.73;;;4.50;99.90;;;;;;5035000;28;20449;-89
2022/01/05 05:54:14;;;;;;;3.17;1.93;;;4.40;99.90;;;;;;5033773;28;20531;-89
2022/01/05 05:56:42;;;;;;;2.33;1.87;;;4.40;99.90;;;;;;5036848;28;20482;-90
2022/01/05 05:59:09;;;;;;;2.70;1.63;;;4.40;99.90;;;;;;5023897;28;20504;-90
2022/01/05 06:01:36;;;;;;;2.10;1.90;;;4.40;99.90;;;;;;5020028;28;20489;-90
2022/01/05 06:04:05;;;;;;;3.97;3.70;;;4.40;99.90;;;;;;5019546;28;20456;-90
2022/01/05 06:06:32;;;;;;;2.40;2.20;;;4.40;99.90;;;;;;5016490;28;20480;-89
2022/01/05 06:08:59;;;;;;;2.03;1.83;;;4.40;99.90;;;;;;5017531;28;20453;-90
2022/01/05 06:11:25;;;;;;;2.30;2.10;;;4.40;99.90;;;;;;5015963;28;20472;-90
2022/01/05 06:13:54;;;;;;;2.30;2.10;;;4.30;99.90;;;;;;5015839;28;20454;-90
2022/01/05 06:16:22;;;;;;;2.53;2.00;;;4.30;99.90;;;;;;5015581;28;20501;-90
2022/01/05 06:18:49;;;;;;;3.40;1.97;;;4.40;99.90;;;;;;5018370;28;20991;-89
2022/01/05 06:21:17;;;;;;;2.97;2.40;;;4.30;99.90;;;;;;5016176;28;20503;-89
2022/01/05 06:23:44;;;;;;;2.63;2.33;;;4.30;99.90;;;;;;5016760;28;20461;-89
2022/01/05 06:26:12;;;;;;;2.60;2.40;;;4.30;99.90;;;;;;5022070;28;20987;-89
2022/01/05 06:28:39;;;;;;;2.37;2.17;;;4.30;99.90;;;;;;5017778;28;20455;-90
2022/01/05 06:31:06;;;;;;;2.90;2.43;;;4.40;99.90;;;;;;5017714;28;20946;-91
2022/01/05 06:33:33;;;;;;;2.10;1.80;;;4.30;99.90;;;;;;5016602;28;20454;-89
2022/01/05 06:36:00;;;;;;;2.57;2.37;;;4.40;99.90;;;;;;5016560;28;20470;-89
2022/01/05 06:38:28;;;;;;;2.60;2.40;;;4.50;99.90;;;;;;5019731;28;20456;-89
2022/01/05 06:40:56;;;;;;;2.53;2.33;;;4.50;99.90;;;;;;5035123;28;20474;-89
2022/01/05 06:43:23;;;;;;;4.67;2.73;;;4.50;99.90;;;;;;5025859;28;20529;-90
2022/01/05 06:45:50;;;;;;;3.33;2.67;;;4.60;99.90;;;;;;5016262;28;20470;-89
2022/01/05 06:48:17;;;;;;;4.40;2.30;;;4.50;99.90;;;;;;5019070;28;20953;-90
2022/01/05 06:50:44;;;;;;;3.10;2.17;;;4.50;99.90;;;;;;5016394;28;20942;-89
2022/01/05 06:53:11;;;;;;;3.13;2.00;;;4.50;99.90;;;;;;5016984;28;20457;-89
2022/01/05 06:55:39;;;;;;;2.50;2.30;;;4.50;99.90;;;;;;5037627;28;20454;-92
2022/01/05 06:58:06;;;;;;;2.87;1.80;;;4.60;99.90;;;;;;5029312;28;20450;-89
2022/01/05 07:00:33;;;;;;;1.80;1.70;;;4.50;99.90;;;;;;5015544;28;20477;-89
2022/01/05 07:03:00;;;;;;;1.97;1.77;;;4.60;99.90;;;;;;5015972;28;20480;-89
2022/01/05 07:05:28;;;;;;;1.43;1.33;;;4.50;99.90;;;;;;4966952;28;1477247;-90
2022/01/05 07:07:55;;;;;;;2.23;1.20;;;4.40;99.90;;;;;;5011527;28;20510;-90
2022/01/05 07:10:22;;;;;;;2.43;1.53;;;4.30;99.90;;;;;;4998285;28;20442;-91
2022/01/05 07:12:51;;;;;;;2.50;1.80;;;4.30;99.90;;;;;;5003259;28;20460;-90
2022/01/05 07:15:19;;;;;;;2.40;1.50;;;4.30;99.90;;;;;;5031149;28;20460;-90
2022/01/05 07:17:46;;;;;;;2.60;2.40;;;4.30;99.90;;;;;;5036271;28;20451;-91
2022/01/05 07:20:14;;;;;;;2.57;2.00;;;4.30;99.90;;;;;;5053006;28;20471;-93
2022/01/05 07:22:41;;;;;;;3.97;2.00;;;4.30;99.90;;;;;;5038197;28;20447;-91
2022/01/05 07:25:35;;;;;;;2.13;1.90;;;4.30;99.90;;;;;;5023811;28;20438;-91
2022/01/05 07:31:00;;;;;;;2.63;1.87;;;4.30;99.90;;;;;;5021354;28;20454;-90
2022/01/05 07:34:02;;;;;;;2.17;1.93;;;4.30;99.90;;;;;;5020733;28;20470;-90
2022/01/05 07:36:49;;;;;;;2.30;1.97;;;4.30;99.90;;;;;;5051860;28;20448;-92
2022/01/05 07:39:26;;;;;;;2.50;2.23;;;4.20;99.90;;;;;;5040312;28;20542;-90
2022/01/05 07:56:36;;;;;;;4.30;2.37;;;4.30;99.90;;;;;;6024042;22;4624932;-91
2022/01/05 07:59:15;;;;;;;3.53;1.90;;;4.10;99.90;;;;;;6178946;23;20167;-91
2022/01/05 08:02:01;;;;;;;2.20;2.00;;;4.10;99.90;;;;;;6185119;23;20419;-91
2022/01/05 08:04:37;;;;;;;8.00;2.60;;;4.10;99.90;;;;;;6172229;23;20437;-93
2022/01/05 08:07:09;;;;;;;3.10;1.80;;;4.10;99.90;;;;;;6171443;23;20432;-91
2022/01/05 08:09:49;;;;;;;4.23;2.60;;;4.00;99.90;;;;;;6169322;23;20448;-91
2022/01/05 08:12:16;;;;;;;4.30;2.40;;;4.00;99.90;;;;;;6167255;23;20402;-91
2022/01/05 08:15:06;;;;;;;3.27;2.03;;;4.00;99.90;;;;;;6169094;23;20469;-90
2022/01/05 08:17:47;;;;;;;6.70;3.17;;;4.00;99.90;;;;;;6171045;23;20421;-90
2022/01/05 08:20:18;;;;;;;2.60;2.30;;;4.00;99.90;;;;;;6171984;23;20418;-91
2022/01/05 08:22:50;;;;;;;4.57;3.17;;;3.90;99.90;;;;;;6175855;23;20417;-90
2022/01/05 08:25:28;;;;;;;6.07;2.67;;;4.00;99.90;;;;;;6168995;23;20447;-91
2022/01/05 08:29:35;;;;;;;4.90;3.00;;;4.00;99.90;;;;;;6168731;23;20437;-90
2022/01/05 08:32:48;;;;;;;8.20;3.40;;;4.10;99.90;;;;;;6108861;23;20425;-90
2022/01/05 08:38:59;;;;;;;5.03;3.03;;;4.20;99.90;;;;;;6108137;23;20411;-88
2022/01/05 08:44:38;;;;;;;3.53;2.83;;;4.20;99.90;;;;;;6178763;23;20452;-89
2022/01/05 08:47:20;;;;;;;9.57;3.47;;;4.20;99.90;;;;;;6181445;23;20430;-91
2022/01/05 08:50:15;;;;;;;5.07;3.10;;;4.20;99.90;;;;;;6168567;23;20918;-89
2022/01/05 08:53:16;;;;;;;4.00;3.03;;;4.20;99.90;;;;;;6167625;23;20406;-89
2022/01/05 08:55:56;;;;;;;3.80;1.83;;;4.30;99.90;;;;;;6178828;23;20470;-90
2022/01/05 08:58:30;;;;;;;5.23;2.50;;;4.20;99.90;;;;;;6178434;23;20461;-89
2022/01/05 09:01:12;;;;;;;4.70;2.23;;;4.10;99.90;;;;;;6172846;23;20410;-89
2022/01/05 09:03:53;;;;;;;3.47;2.30;;;4.10;99.90;;;;;;6164059;23;20516;-90
2022/01/05 09:06:20;;;;;;;4.80;2.70;;;4.30;99.90;;;;;;6148261;23;20494;-84
2022/01/05 09:08:49;;;;;;;4.53;2.33;;;4.60;99.90;;;;;;6135372;23;20411;-85
2022/01/05 09:11:15;;;;;;;8.47;2.67;;;5.00;99.90;;;;;;6131132;23;20455;-84
2022/01/05 09:13:42;;;;;;;2.77;1.97;;;5.30;99.90;;;;;;6142848;23;20402;-85
2022/01/05 09:16:09;;;;;;;5.00;2.87;;;5.40;99.90;;;;;;6143037;23;20424;-84
2022/01/05 09:18:36;;;;;;;5.43;2.80;;;5.40;99.90;;;;;;6146138;23;20412;-84
2022/01/05 09:21:02;;;;;;;5.73;3.27;;;5.40;99.90;;;;;;6137272;23;20755;-84
2022/01/05 09:23:29;;;;;;;3.43;2.70;;;5.40;99.90;;;;;;6141002;23;20412;-85
2022/01/05 09:25:57;;;;;;;4.80;2.00;;;5.20;99.90;;;;;;6139555;23;20433;-82
2022/01/05 09:28:24;;;;;;;4.37;2.50;;;5.10;99.90;;;;;;6133985;23;20400;-84
2022/01/05 09:30:50;;;;;;;2.43;2.17;;;5.10;99.90;;;;;;6132971;23;20407;-83
2022/01/05 09:33:17;;;;;;;5.50;2.47;;;5.10;99.90;;;;;;6132325;23;20489;-83
2022/01/05 09:35:46;;;;;;;5.57;2.30;;;5.20;99.90;;;;;;6130835;23;20435;-86
2022/01/05 09:38:33;;;;;;;3.83;2.63;;;5.40;99.90;;;;;;6128890;23;20416;-85
2022/01/05 09:43:53;;;;;;;4.77;2.63;;;5.70;99.90;;;;;;6133961;23;20430;-86
2022/01/05 09:46:31;;;;;;;4.50;2.70;;;5.70;99.90;;;;;;6138490;23;20431;-85
2022/01/05 09:49:09;;;;;;;4.03;2.50;;;5.70;99.90;;;;;;6133068;23;20391;-85
2022/01/05 09:51:38;;;;;;;4.13;2.83;;;5.80;99.90;;;;;;6148715;23;20356;-86
2022/01/05 09:54:05;;;;;;;5.50;2.97;;;5.80;99.90;;;;;;6143899;23;20400;-86
2022/01/05 09:56:34;;;;;;;4.83;2.80;;;5.70;99.90;;;;;;6129924;23;20767;-86
2022/01/05 09:59:02;;;;;;;3.60;2.30;;;5.70;99.90;;;;;;6130612;23;20415;-83
2022/01/05 10:01:30;;;;;;;5.53;2.60;;;5.50;99.90;;;;;;6134188;23;20449;-83
2022/01/05 10:03:58;;;;;;;5.10;2.70;;;5.40;99.90;;;;;;6130318;23;20855;-83
2022/01/05 10:06:24;;;;;;;5.13;2.97;;;5.30;99.90;;;;;;6142121;23;20473;-85
2022/01/05 10:08:51;;;;;;;6.23;3.50;;;5.30;99.90;;;;;;6162701;23;20515;-85
2022/01/05 10:11:20;;;;;;;4.57;2.07;;;5.40;99.90;;;;;;6158209;23;20464;-86
2022/01/05 10:13:48;;;;;;;3.03;2.17;;;5.40;99.90;;;;;;6161602;23;20426;-86
2022/01/05 10:16:15;;;;;;;2.20;2.00;;;5.50;99.90;;;;;;6161878;23;20556;-85
2022/01/05 10:18:43;;;;;;;7.73;2.07;;;5.70;99.90;;;;;;6166734;23;20410;-85
2022/01/05 10:21:13;;;;;;;4.40;2.60;;;6.10;99.90;;;;;;6168506;23;20411;-85
2022/01/05 10:23:43;;;;;;;6.77;2.30;;;6.70;99.20;;;;;;6164574;23;20770;-85
2022/01/05 10:26:27;;;;;;;7.47;3.43;;;6.60;98.50;;;;;;6164146;23;20433;-85
2022/01/05 10:28:58;;;;;;;6.67;2.77;;;6.60;98.70;;;;;;6172472;23;20396;-86
2022/01/05 10:31:27;;;;;;;4.80;2.77;;;6.40;97.80;;;;;;6175228;23;20676;-85
2022/01/05 10:33:54;;;;;;;4.40;2.60;;;6.40;97.90;;;;;;6174264;23;20403;-86
2022/01/05 10:36:21;;;;;;;5.07;2.80;;;7.10;97.40;;;;;;6168295;23;20429;-87
2022/01/05 10:38:56;;;;;;;4.17;2.37;;;8.10;94.90;;;;;;6168325;23;20434;-86
2022/01/05 10:41:25;;;;;;;4.37;1.70;;;8.90;91.70;;;;;;6178809;23;20386;-86
2022/01/05 10:44:14;;;;;;;7.83;2.10;;;10.70;89.70;;;;;;6167182;23;20475;-85
2022/01/05 10:46:43;;;;;;;4.30;2.70;;;12.10;80.80;;;;;;6166475;23;20477;-86
2022/01/05 10:49:10;;;;;;;9.53;3.03;;;13.20;75.30;;;;;;6163774;23;20776;-85
2022/01/05 10:51:37;;;;;;;6.27;2.70;;;13.30;69.70;;;;;;6163142;23;20404;-86
2022/01/05 10:54:12;;;;;;;5.40;2.87;;;14.00;69.20;;;;;;6163587;23;20403;-87
2022/01/05 10:56:39;;;;;;;5.03;2.37;;;14.40;65.70;;;;;;6163149;23;20431;-87
2022/01/05 10:59:06;;;;;;;7.90;2.00;;;15.40;63.00;;;;;;6168179;23;20417;-85
2022/01/05 11:01:35;;;;;;;7.53;2.37;;;16.50;62.40;;;;;;6176651;23;20408;-86
2022/01/05 11:04:15;;;;;;;12.30;6.17;;;18.00;56.70;;;;;;6167322;23;20407;-86
2022/01/05 11:06:58;;;;;;;8.27;4.40;;;18.00;54.20;;;;;;6159367;23;20442;-86
2022/01/05 11:09:25;;;;;;;7.90;4.30;;;16.50;52.50;;;;;;6159685;23;20393;-86
2022/01/05 11:11:53;;;;;;;12.40;5.47;;;14.70;53.90;;;;;;6160813;23;20418;-86
2022/01/05 11:14:27;;;;;;;6.77;3.07;;;14.40;57.30;;;;;;6159903;23;20445;-86
2022/01/05 11:16:55;;;;;;;6.17;2.57;;;14.50;58.40;;;;;;6158713;23;20432;-86
2022/01/05 11:19:24;;;;;;;7.30;2.43;;;15.10;56.50;;;;;;6158928;23;20463;-86
2022/01/05 11:22:06;;;;;;;6.03;2.40;;;15.40;55.00;;;;;;6171923;23;20418;-87
2022/01/05 11:24:35;;;;;;;5.10;2.23;;;16.40;53.60;;;;;;6174360;23;20426;-86
2022/01/05 11:27:04;;;;;;;8.23;2.43;;;17.00;53.50;;;;;;6169147;23;20498;-86
2022/01/05 11:29:33;;;;;;;4.77;2.10;;;18.00;53.60;;;;;;6162734;23;20436;-86
2022/01/05 11:32:02;;;;;;;6.90;2.43;;;18.10;50.70;;;;;;6159823;23;20476;-86
2022/01/05 11:34:30;;;;;;;7.93;2.60;;;18.20;50.30;;;;;;6160551;23;20422;-86
2022/01/05 11:36:57;;;;;;;4.57;2.00;;;16.30;50.60;;;;;;6164819;23;20742;-86
2022/01/05 11:39:24;;;;;;;5.67;2.83;;;13.60;53.00;;;;;;6167411;23;20404;-87
2022/01/05 11:41:53;;;;;;;7.23;3.37;;;12.10;57.50;;;;;;6169683;23;20411;-87
2022/01/05 11:44:20;;;;;;;6.00;3.40;;;11.80;59.50;;;;;;6164525;23;20434;-86
2022/01/05 11:46:48;;;;;;;8.80;3.53;;;10.90;60.60;;;;;;6167762;23;20561;-87
2022/01/05 11:49:25;;;;;;;3.30;2.40;;;10.50;63.90;;;;;;6171416;23;20430;-88
2022/01/05 11:51:53;;;;;;;6.87;2.57;;;10.30;64.40;;;;;;6173325;23;20714;-86
2022/01/05 11:54:22;;;;;;;10.50;4.17;;;10.00;66.00;;;;;;6169786;23;20410;-87
2022/01/05 11:56:52;;;;;;;12.70;3.10;;;9.50;68.80;;;;;;6167594;23;20427;-87
2022/01/05 11:59:35;;;;;;;8.87;4.10;;;9.30;69.80;;;;;;6168221;23;20410;-87
2022/01/05 12:02:05;;;;;;;9.90;3.83;;;9.40;71.60;;;;;;6166792;23;20395;-85
2022/01/05 12:05:01;;;;;;;8.30;4.03;;;9.50;72.40;;;;;;6169917;23;20433;-87
2022/01/05 12:07:37;;;;;;;6.30;2.70;;;11.10;69.50;;;;;;6174311;23;20423;-87
2022/01/05 12:10:12;;;;;;;8.20;3.47;;;13.00;65.20;;;;;;6175419;23;20361;-87
2022/01/05 12:12:52;;;;;;;6.03;3.10;;;14.30;61.40;;;;;;6178287;23;20387;-87
2022/01/05 12:15:43;;;;;;;8.10;2.83;;;15.30;58.20;;;;;;6177068;23;20384;-87
2022/01/05 12:18:10;;;;;;;9.70;3.53;;;14.20;56.80;;;;;;6171345;23;20495;-86
2022/01/05 12:20:40;;;;;;;4.40;3.10;;;13.60;57.50;;;;;;6164144;23;20415;-86
2022/01/05 12:23:19;;;;;;;8.53;3.33;;;13.00;56.90;;;;;;6162882;23;20745;-86
2022/01/05 12:26:14;;;;;;;3.30;2.07;;;13.00;57.70;;;;;;6165644;23;20446;-86
2022/01/05 12:28:51;;;;;;;7.13;2.40;;;12.10;57.70;;;;;;6163825;23;20392;-86
2022/01/05 12:31:18;;;;;;;5.87;2.33;;;10.90;59.90;;;;;;6171926;23;20798;-86
2022/01/05 12:33:48;;;;;;;7.10;2.90;;;10.00;62.90;;;;;;6166386;23;20406;-86
2022/01/05 12:36:33;;;;;;;5.33;2.00;;;10.00;63.50;;;;;;6170111;23;20431;-86
2022/01/05 12:39:00;;;;;;;5.90;2.00;;;10.10;63.70;;;;;;6166576;23;20395;-85
2022/01/05 12:41:34;;;;;;;7.30;2.30;;;10.80;63.70;;;;;;6176987;23;20403;-86
2022/01/05 12:44:05;;;;;;;4.07;2.27;;;11.00;63.30;;;;;;6172661;23;20391;-86
2022/01/05 12:46:38;;;;;;;4.43;2.63;;;11.40;61.30;;;;;;6175329;23;20478;-85
2022/01/05 12:49:11;;;;;;;6.63;2.90;;;11.90;61.30;;;;;;6174008;23;20854;-85
2022/01/05 12:51:54;;;;;;;3.80;2.20;;;12.40;60.40;;;;;;6167703;23;20398;-85
2022/01/05 12:54:26;;;;;;;7.03;2.73;;;12.70;59.40;;;;;;6165754;23;20462;-85
2022/01/05 12:56:55;;;;;;;5.87;2.03;;;13.10;59.20;;;;;;6164629;23;20423;-85
2022/01/05 12:59:28;;;;;;;5.10;2.43;;;13.90;58.60;;;;;;6166293;23;20913;-86
2022/01/05 13:01:57;;;;;;;4.23;1.97;;;13.10;55.90;;;;;;6167069;23;20724;-86
2022/01/05 13:04:26;;;;;;;5.87;2.30;;;12.00;57.50;;;;;;6164714;23;20397;-86
2022/01/05 13:06:58;;;;;;;5.87;2.43;;;10.10;58.60;;;;;;6173723;23;20781;-86
2022/01/05 13:09:30;;;;;;;5.90;2.63;;;8.80;64.50;;;;;;6172454;23;20414;-86
2022/01/05 13:11:59;;;;;;;7.20;2.83;;;8.10;67.20;;;;;;6168765;23;20425;-86
2022/01/05 13:14:30;;;;;;;4.30;1.80;;;8.40;69.10;;;;;;6167144;23;20712;-86
2022/01/05 13:17:00;;;;;;;4.27;1.80;;;8.60;68.20;;;;;;6167966;23;20437;-86
2022/01/05 13:19:30;;;;;;;9.30;2.70;;;8.30;69.70;;;;;;6167246;23;20411;-85
2022/01/05 13:22:00;;;;;;;10.83;4.43;;;8.40;69.90;;;;;;6165074;23;20395;-86
2022/01/05 13:24:48;;;;;;;7.50;2.00;;;8.60;70.00;;;;;;6165622;23;20394;-85
2022/01/05 13:27:17;;;;;;;8.20;2.17;;;8.60;70.70;;;;;;6164664;23;20419;-85
2022/01/05 13:29:46;;;;;;;5.13;2.57;;;8.60;70.60;;;;;;6165379;23;20415;-87
2022/01/05 13:32:14;;;;;;;4.47;2.40;;;9.50;70.40;;;;;;6168748;23;20413;-86
2022/01/05 13:34:45;;;;;;;7.73;2.23;;;10.00;67.60;;;;;;6163805;23;20403;-86
2022/01/05 13:37:24;;;;;;;4.93;2.10;;;10.40;66.40;;;;;;6170926;23;20423;-85
2022/01/05 13:39:51;;;;;;;6.20;2.47;;;11.10;64.50;;;;;;6165885;23;20458;-87